Time;durP1;ratioP1;P1;durP2;ratioP2;P2;SDS_P1;SDS_P2;PMS_P1;PMS_P2;Temp;Humidity;BMP_temperature;BMP_pressure;BME280_temperature;BME280_humidity;BME280_pressure;Samples;Min_cycle;Max_cycle;Signal;HPM_P1;HPM_P2
2021/04/01 00:02:27;;;;;;;12.73;7.00;;;12.00;99.90;;;;;;5016954;28;20030;-75
2021/04/01 00:04:54;;;;;;;11.05;7.18;;;12.00;1.00;;;;;;5004546;28;20482;-75
2021/04/01 00:07:19;;;;;;;11.27;6.88;;;11.90;72.20;;;;;;5014243;28;20023;-75
2021/04/01 00:09:45;;;;;;;13.45;6.82;;;11.90;99.90;;;;;;5029062;28;20528;-76
2021/04/01 00:12:11;;;;;;;10.88;6.07;;;11.90;99.90;;;;;;5025753;28;20030;-76
2021/04/01 00:14:37;;;;;;;15.70;7.53;;;12.00;99.90;;;;;;5020484;28;20038;-75
2021/04/01 00:17:05;;;;;;;11.98;7.20;;;11.90;99.90;;;;;;5032911;28;20053;-75
2021/04/01 00:19:30;;;;;;;9.82;7.25;;;11.90;99.90;;;;;;5041176;28;20081;-75
2021/04/01 00:21:56;;;;;;;10.38;6.65;;;11.90;1.00;;;;;;5036139;28;20022;-76
2021/04/01 00:24:21;;;;;;;11.27;6.07;;;11.90;99.90;;;;;;5021477;28;20057;-75
2021/04/01 00:26:47;;;;;;;12.77;7.20;;;11.80;1.00;;;;;;5026546;28;20018;-74
2021/04/01 00:29:13;;;;;;;8.48;6.47;;;11.80;99.90;;;;;;5025000;28;20040;-75
2021/04/01 00:31:39;;;;;;;9.65;6.43;;;11.80;99.90;;;;;;5020208;28;20038;-77
2021/04/01 00:34:09;;;;;;;11.25;6.70;;;11.80;99.90;;;;;;5023697;28;20022;-74
2021/04/01 00:36:34;;;;;;;11.18;5.55;;;11.80;99.90;;;;;;5020836;28;20038;-76
2021/04/01 00:39:00;;;;;;;7.20;6.20;;;11.80;1.00;;;;;;5027801;28;20102;-75
2021/04/01 00:41:26;;;;;;;12.75;5.95;;;11.80;1.00;;;;;;5028246;28;20086;-77
2021/04/01 00:43:51;;;;;;;11.52;6.60;;;11.80;99.90;;;;;;5029466;28;20137;-76
2021/04/01 00:46:17;;;;;;;7.95;5.60;;;11.80;2.80;;;;;;5021502;28;20077;-76
2021/04/01 00:48:42;;;;;;;10.73;6.15;;;11.70;1.00;;;;;;5018256;28;20031;-75
2021/04/01 00:51:08;;;;;;;11.13;6.45;;;11.60;1.00;;;;;;5019570;28;20027;-75
2021/04/01 00:53:34;;;;;;;12.05;6.78;;;11.60;28.80;;;;;;5019950;28;20076;-75
2021/04/01 00:56:00;;;;;;;11.10;7.32;;;11.60;99.90;;;;;;5031210;28;20030;-76
2021/04/01 00:58:26;;;;;;;11.18;7.03;;;11.60;99.90;;;;;;5016183;28;20081;-75
2021/04/01 01:03:50;;;;;;;11.60;5.80;;;11.60;1.00;;;;;;4997415;28;20033;-74
2021/04/01 01:06:16;;;;;;;10.90;5.18;;;11.50;1.00;;;;;;5019001;28;20022;-76
2021/04/01 01:08:42;;;;;;;8.63;6.35;;;11.50;1.00;;;;;;5018641;28;20042;-75
2021/04/01 01:11:07;;;;;;;12.57;5.75;;;11.40;1.00;;;;;;5018763;28;20042;-76
2021/04/01 01:13:33;;;;;;;11.90;6.68;;;11.40;99.80;;;;;;5018182;28;20090;-75
2021/04/01 01:15:59;;;;;;;7.93;6.22;;;11.30;99.90;;;;;;5019312;28;20049;-76
2021/04/01 01:18:28;;;;;;;10.52;6.70;;;11.30;99.90;;;;;;5019223;28;20057;-76
2021/04/01 01:20:57;;;;;;;12.25;6.07;;;11.30;99.90;;;;;;5019266;28;20094;-76
2021/04/01 01:23:26;;;;;;;8.70;5.45;;;11.30;99.90;;;;;;5015678;28;20023;-75
2021/04/01 01:25:54;;;;;;;8.98;5.50;;;11.40;1.00;;;;;;5011221;28;20052;-75
2021/04/01 01:28:20;;;;;;;9.77;5.32;;;11.30;99.90;;;;;;5006089;28;20069;-75
2021/04/01 01:30:45;;;;;;;8.93;5.57;;;11.20;99.90;;;;;;5019684;28;20018;-75
2021/04/01 01:33:16;;;;;;;11.18;5.45;;;11.20;99.90;;;;;;5025581;28;20027;-75
2021/04/01 01:35:42;;;;;;;16.35;6.10;;;11.20;99.90;;;;;;5013677;28;20026;-75
2021/04/01 01:38:09;;;;;;;15.27;6.28;;;11.20;99.90;;;;;;5025961;28;20026;-74
2021/04/01 01:40:36;;;;;;;10.38;6.78;;;11.20;99.90;;;;;;4998599;28;20042;-75
2021/04/01 01:43:05;;;;;;;11.50;5.60;;;11.10;99.90;;;;;;5020683;28;20033;-76
2021/04/01 01:45:31;;;;;;;8.32;6.03;;;11.00;99.90;;;;;;5039101;28;20045;-76
2021/04/01 01:47:59;;;;;;;10.85;6.68;;;11.00;1.00;;;;;;5023264;28;20040;-75
2021/04/01 01:50:27;;;;;;;10.82;5.78;;;11.00;1.00;;;;;;5018518;28;20022;-77
2021/04/01 01:52:53;;;;;;;11.90;6.10;;;11.00;11.60;;;;;;5018915;28;20010;-77
2021/04/01 01:55:19;;;;;;;14.80;7.75;;;11.00;1.00;;;;;;5019781;28;20018;-77
2021/04/01 01:57:45;;;;;;;11.45;6.15;;;11.00;2.60;;;;;;5018653;28;20046;-76
2021/04/01 02:00:33;;;;;;;15.98;6.63;;;10.90;67.20;;;;;;5031621;28;20026;-77
2021/04/01 02:03:01;;;;;;;11.95;6.35;;;10.90;99.90;;;;;;5037153;28;20029;-75
2021/04/01 02:05:29;;;;;;;10.07;6.10;;;10.80;99.90;;;;;;5035390;28;20219;-77
2021/04/01 02:07:55;;;;;;;9.85;5.50;;;10.80;99.90;;;;;;5053797;28;20022;-75
2021/04/01 02:10:33;;;;;;;9.57;5.90;;;10.80;99.90;;;;;;5027036;28;20044;-74
2021/04/01 02:12:59;;;;;;;9.25;5.55;;;10.80;99.90;;;;;;5028702;28;20221;-74
2021/04/01 02:15:33;;;;;;;12.43;5.10;;;10.80;99.90;;;;;;5029150;28;20037;-76
2021/04/01 02:18:07;;;;;;;9.98;6.07;;;10.70;99.90;;;;;;5023586;28;20033;-76
2021/04/01 02:20:41;;;;;;;8.45;6.03;;;10.70;1.00;;;;;;5018515;28;20012;-77
2021/04/01 02:23:12;;;;;;;9.80;6.47;;;10.70;1.00;;;;;;5011385;28;20033;-76
2021/04/01 02:25:39;;;;;;;11.05;6.28;;;10.70;1.00;;;;;;5030831;28;20010;-76
2021/04/01 02:28:06;;;;;;;16.58;5.28;;;10.60;1.00;;;;;;5038370;28;20082;-76
2021/04/01 02:30:33;;;;;;;9.23;5.55;;;10.60;23.10;;;;;;5011124;28;20018;-76
2021/04/01 02:32:59;;;;;;;12.07;6.07;;;10.60;57.60;;;;;;5029678;28;20021;-75
2021/04/01 02:35:25;;;;;;;10.98;7.13;;;10.60;68.60;;;;;;5034353;28;20021;-75
2021/04/01 02:37:51;;;;;;;9.13;6.40;;;10.60;99.30;;;;;;5029154;28;20034;-75
2021/04/01 02:40:17;;;;;;;8.23;6.05;;;10.50;94.70;;;;;;5023798;28;20085;-77
2021/04/01 02:42:42;;;;;;;10.68;6.50;;;10.50;99.90;;;;;;5017892;28;20129;-76
2021/04/01 02:45:11;;;;;;;12.27;6.10;;;10.50;99.90;;;;;;5019414;28;20023;-76
2021/04/01 02:47:37;;;;;;;12.23;6.88;;;10.50;99.90;;;;;;5008414;28;20026;-77
2021/04/01 02:50:05;;;;;;;10.38;6.38;;;10.50;99.90;;;;;;5008774;28;20030;-76
2021/04/01 02:52:30;;;;;;;8.52;6.45;;;10.50;99.20;;;;;;5009523;28;20078;-76
2021/04/01 02:54:56;;;;;;;12.50;5.43;;;10.50;99.90;;;;;;5016717;28;20026;-76
2021/04/01 02:57:22;;;;;;;10.82;6.22;;;10.50;99.90;;;;;;5037014;23;20073;-74
2021/04/01 02:59:48;;;;;;;11.30;7.05;;;10.40;99.90;;;;;;5014357;28;20058;-74
2021/04/01 03:02:14;;;;;;;11.25;6.45;;;10.40;99.90;;;;;;5031053;28;20032;-73
2021/04/01 03:04:43;;;;;;;14.02;6.07;;;10.40;99.90;;;;;;5038877;28;20033;-73
2021/04/01 03:07:09;;;;;;;9.25;6.30;;;10.40;99.90;;;;;;5035126;28;20026;-72
2021/04/01 03:09:35;;;;;;;10.05;5.22;;;10.30;99.90;;;;;;5011658;28;20038;-74
2021/04/01 03:12:01;;;;;;;11.30;6.07;;;10.30;99.90;;;;;;5002010;28;20065;-72
2021/04/01 03:14:27;;;;;;;11.68;6.18;;;10.30;99.90;;;;;;5005838;28;20040;-72
2021/04/01 03:16:53;;;;;;;10.27;5.93;;;10.30;99.90;;;;;;5020449;28;20044;-74
2021/04/01 03:19:19;;;;;;;16.05;6.22;;;10.30;99.90;;;;;;5027987;28;20066;-71
2021/04/01 03:21:45;;;;;;;9.15;5.82;;;10.30;99.90;;;;;;5030750;28;20032;-72
2021/04/01 03:24:12;;;;;;;13.90;5.95;;;10.30;99.90;;;;;;5031066;28;20014;-72
2021/04/01 03:26:39;;;;;;;9.10;6.00;;;10.30;99.90;;;;;;5025448;28;20034;-72
2021/04/01 03:29:05;;;;;;;9.77;6.50;;;10.30;99.90;;;;;;5028791;28;20011;-73
2021/04/01 03:31:31;;;;;;;14.57;6.78;;;10.30;99.90;;;;;;5033147;28;20093;-73
2021/04/01 03:33:56;;;;;;;9.30;6.07;;;10.20;99.90;;;;;;5036318;28;20041;-73
2021/04/01 03:36:22;;;;;;;10.90;7.00;;;10.10;99.90;;;;;;5032591;28;20038;-73
2021/04/01 03:38:48;;;;;;;9.32;5.88;;;10.10;1.00;;;;;;5044660;28;20052;-74
2021/04/01 03:41:14;;;;;;;13.57;6.03;;;10.00;1.00;;;;;;5025073;28;20030;-73
2021/04/01 03:43:40;;;;;;;13.57;6.15;;;10.00;1.00;;;;;;5024760;28;20041;-73
2021/04/01 03:46:07;;;;;;;12.57;6.45;;;10.00;1.00;;;;;;5025650;28;20026;-72
2021/04/01 03:48:32;;;;;;;16.58;6.75;;;10.00;1.00;;;;;;5037443;28;20053;-72
2021/04/01 03:50:58;;;;;;;10.15;5.70;;;9.90;1.00;;;;;;5020557;28;20089;-73
2021/04/01 03:53:24;;;;;;;9.70;5.40;;;10.00;1.00;;;;;;5022442;28;20548;-74
2021/04/01 03:55:51;;;;;;;9.73;6.28;;;10.00;1.00;;;;;;5022008;28;20038;-73
2021/04/01 04:01:23;;;;;;;16.85;5.90;;;10.00;1.00;;;;;;5016887;28;20070;-72
2021/04/01 04:06:31;;;;;;;11.50;6.57;;;10.00;1.00;;;;;;5010694;28;20045;-73
2021/04/01 04:11:46;;;;;;;10.98;6.20;;;10.00;1.00;;;;;;5010131;28;20037;-73
2021/04/01 04:16:38;;;;;;;13.52;6.63;;;9.90;1.00;;;;;;5010608;28;20061;-75
2021/04/01 04:19:04;;;;;;;11.88;6.88;;;9.90;1.00;;;;;;5015538;28;20697;-73
2021/04/01 04:21:30;;;;;;;9.65;6.13;;;9.90;1.00;;;;;;5003184;28;20026;-74
2021/04/01 04:23:56;;;;;;;7.93;5.38;;;9.90;1.00;;;;;;5016876;28;20137;-73
2021/04/01 04:26:23;;;;;;;13.18;6.30;;;9.90;1.00;;;;;;5005263;28;20037;-74
2021/04/01 04:28:48;;;;;;;8.30;5.85;;;9.80;1.00;;;;;;5007384;28;20034;-73
2021/04/01 04:31:14;;;;;;;10.00;6.30;;;9.80;1.00;;;;;;4999854;28;20037;-71
2021/04/01 04:33:40;;;;;;;13.45;6.28;;;9.80;1.00;;;;;;4998809;28;20037;-75
2021/04/01 04:36:06;;;;;;;9.85;5.80;;;9.80;1.00;;;;;;5000192;28;20038;-73
2021/04/01 04:38:32;;;;;;;15.23;6.43;;;9.90;1.00;;;;;;5015469;28;20371;-72
2021/04/01 04:40:58;;;;;;;16.38;6.80;;;9.90;1.00;;;;;;5004527;28;20033;-74
2021/04/01 04:43:25;;;;;;;11.60;5.57;;;9.80;1.00;;;;;;5012800;28;20022;-75
2021/04/01 04:45:51;;;;;;;11.00;6.25;;;9.80;1.00;;;;;;5005537;28;20030;-73
2021/04/01 04:48:17;;;;;;;13.05;7.28;;;9.80;3.70;;;;;;4999598;28;20029;-73
2021/04/01 04:50:42;;;;;;;8.68;6.85;;;9.80;3.10;;;;;;4997257;28;20027;-74
2021/04/01 04:53:08;;;;;;;16.23;6.88;;;9.80;1.00;;;;;;4996498;28;20088;-73
2021/04/01 04:55:34;;;;;;;11.43;7.32;;;9.80;3.50;;;;;;5002768;28;20026;-73
2021/04/01 05:09:09;;;;;;;9.98;6.20;;;9.90;1.00;;;;;;5006402;28;20049;-75
2021/04/01 05:11:35;;;;;;;13.55;7.57;;;9.90;1.00;;;;;;5001024;28;20467;-74
2021/04/01 05:14:01;;;;;;;13.07;7.03;;;10.00;1.00;;;;;;5010307;28;20040;-73
2021/04/01 05:16:27;;;;;;;15.00;7.15;;;10.10;1.00;;;;;;5009603;28;20026;-73
2021/04/01 05:18:53;;;;;;;15.85;6.30;;;10.20;1.00;;;;;;5007568;28;20044;-75
2021/04/01 05:21:21;;;;;;;11.73;5.70;;;10.30;1.00;;;;;;5007987;28;20029;-72
2021/04/01 05:23:49;;;;;;;15.40;6.07;;;10.50;1.00;;;;;;5010938;28;20027;-72
2021/04/01 05:28:43;;;;;;;8.18;6.35;;;10.90;99.90;;;;;;4999636;28;20041;-75
2021/04/01 05:31:10;;;;;;;13.10;5.57;;;11.10;99.90;;;;;;5000083;28;20547;-75
2021/04/01 05:33:39;;;;;;;16.85;7.15;;;11.30;50.20;;;;;;4999802;28;20076;-74
2021/04/01 05:36:07;;;;;;;14.25;6.22;;;11.50;1.00;;;;;;5006614;28;20034;-74
2021/04/01 05:38:33;;;;;;;16.45;6.90;;;11.60;99.90;;;;;;5011103;28;20031;-74
2021/04/01 05:41:00;;;;;;;15.77;6.78;;;11.60;99.90;;;;;;5003372;28;20032;-75
2021/04/01 05:43:28;;;;;;;13.23;6.43;;;11.80;99.90;;;;;;5001925;28;20022;-74
2021/04/01 05:45:57;;;;;;;13.75;6.00;;;11.80;99.90;;;;;;5006210;28;20057;-74
2021/04/01 05:48:30;;;;;;;11.32;6.70;;;12.00;29.50;;;;;;4999527;28;20506;-73
2021/04/01 05:51:48;;;;;;;20.15;6.88;;;12.10;1.00;;;;;;5015225;28;20433;-75
2021/04/01 05:57:09;;;;;;;13.45;6.45;;;12.00;25.00;;;;;;5008713;28;20076;-75
2021/04/01 06:02:14;;;;;;;13.60;6.07;;;11.80;99.90;;;;;;5006517;28;20041;-74
2021/04/01 06:04:47;;;;;;;14.35;7.28;;;12.00;33.60;;;;;;4997413;28;20390;-74
2021/04/01 06:07:27;;;;;;;12.52;6.20;;;12.00;1.00;;;;;;5004445;28;20116;-74
2021/04/01 06:09:57;;;;;;;15.82;7.25;;;11.90;1.00;;;;;;5006192;28;20508;-73
2021/04/01 06:12:29;;;;;;;15.43;6.10;;;11.70;99.90;;;;;;5007720;28;20449;-73
2021/04/01 06:15:02;;;;;;;11.10;5.55;;;11.60;99.90;;;;;;5006668;28;20152;-75
2021/04/01 06:17:30;;;;;;;11.25;6.75;;;11.70;99.90;;;;;;5006223;28;20053;-74
2021/04/01 06:19:59;;;;;;;16.83;7.38;;;12.00;1.00;;;;;;5000343;28;20030;-73
2021/04/01 06:22:26;;;;;;;14.60;6.32;;;12.20;99.90;;;;;;5015172;28;20017;-73
2021/04/01 06:24:53;;;;;;;11.65;6.15;;;12.40;99.90;;;;;;5010561;28;20029;-74
2021/04/01 06:27:49;;;;;;;10.43;6.05;;;12.70;99.90;;;;;;5014447;28;20034;-73
2021/04/01 06:32:53;;;;;;;13.95;5.95;;;12.80;1.00;;;;;;4992624;28;20089;-74
2021/04/01 06:41:13;;;;;;;17.98;6.28;;;13.30;5.00;;;;;;5029767;28;20044;-74
2021/04/01 06:43:49;;;;;;;11.02;6.93;;;13.30;1.00;;;;;;5020063;28;20027;-75
2021/04/01 06:46:19;;;;;;;8.43;6.18;;;13.00;99.90;;;;;;5007129;28;20509;-75
2021/04/01 06:51:25;;;;;;;14.00;6.28;;;12.80;99.90;;;;;;5006844;28;20044;-76
2021/04/01 06:54:06;;;;;;;10.27;6.65;;;12.90;99.90;;;;;;5012900;28;20517;-74
2021/04/01 06:56:45;;;;;;;11.95;5.78;;;13.30;99.90;;;;;;5002868;28;20027;-75
2021/04/01 07:02:07;;;;;;;15.35;6.35;;;13.40;99.90;;;;;;4997552;28;20106;-74
2021/04/01 07:04:35;;;;;;;15.10;6.35;;;13.60;99.90;;;;;;4995451;28;20018;-74
2021/04/01 07:07:14;;;;;;;10.50;5.93;;;13.70;99.90;;;;;;5002353;28;20101;-74
2021/04/01 07:12:29;;;;;;;10.45;6.70;;;14.00;1.00;;;;;;4997549;28;20031;-73
2021/04/01 07:15:06;;;;;;;13.32;7.18;;;14.10;99.90;;;;;;5005337;28;20021;-73
2021/04/01 07:17:45;;;;;;;8.82;6.63;;;13.90;1.00;;;;;;5008399;28;20401;-73
2021/04/01 07:48:11;;;;;;;8.90;6.20;;;15.50;99.90;;;;;;5017464;28;20434;-74
2021/04/01 07:50:39;;;;;;;10.98;6.72;;;15.60;47.50;;;;;;5019460;28;20021;-73
2021/04/01 07:53:05;;;;;;;9.45;6.40;;;15.60;1.00;;;;;;5004550;28;20033;-73
2021/04/01 07:55:56;;;;;;;17.55;7.63;;;15.60;1.00;;;;;;5005342;28;20386;-73
2021/04/01 08:01:12;;;;;;;13.65;7.18;;;15.60;1.00;;;;;;5005663;28;20030;-72
2021/04/01 08:06:28;;;;;;;21.67;7.53;;;16.40;99.90;;;;;;5003974;28;20469;-73
2021/04/01 08:08:58;;;;;;;11.88;7.25;;;16.50;99.90;;;;;;4997431;28;20030;-75
2021/04/01 08:11:33;;;;;;;8.25;6.45;;;16.70;99.90;;;;;;5009630;28;20390;-73
2021/04/01 08:14:14;;;;;;;11.75;6.63;;;16.70;99.90;;;;;;5022850;28;20034;-75
2021/04/01 08:16:46;;;;;;;;;;;16.70;99.90;;;;;;5019724;28;20030;-72
2021/04/01 08:19:15;;;;;;;12.25;6.35;;;16.70;99.90;;;;;;5012905;28;19910;-74
2021/04/01 08:21:43;;;;;;;10.68;6.70;;;16.80;99.90;;;;;;5011895;28;20050;-74
2021/04/01 08:24:16;;;;;;;13.05;6.88;;;16.90;99.90;;;;;;5009073;28;20421;-73
2021/04/01 08:26:52;;;;;;;14.45;7.28;;;17.30;99.90;;;;;;5012719;28;20026;-73
2021/04/01 08:32:44;;;;;;;10.27;7.23;;;17.40;62.80;;;;;;5016402;28;20041;-73
2021/04/01 08:35:11;;;;;;;14.93;7.35;;;17.60;20.00;;;;;;5005894;28;20505;-73
2021/04/01 08:37:47;;;;;;;12.43;6.93;;;17.70;1.00;;;;;;5008966;28;20474;-72
2021/04/01 08:40:13;;;;;;;15.88;7.18;;;17.90;1.00;;;;;;5007594;28;20049;-76
2021/04/01 08:42:56;;;;;;;12.05;6.90;;;18.00;1.00;;;;;;5000031;28;20041;-73
2021/04/01 08:45:40;;;;;;;10.25;6.93;;;18.20;1.00;;;;;;5001378;28;20065;-73
2021/04/01 08:48:24;;;;;;;10.65;6.75;;;18.50;1.00;;;;;;5011547;28;20445;-74
2021/04/01 08:51:01;;;;;;;13.80;6.65;;;18.50;1.00;;;;;;5017242;28;20026;-74
2021/04/01 08:54:08;;;;;;;19.63;7.15;;;18.70;1.00;;;;;;5017121;28;20026;-74
2021/04/01 08:56:43;;;;;;;14.88;6.57;;;18.90;1.00;;;;;;5020816;28;20026;-74
2021/04/01 08:59:36;;;;;;;14.20;6.93;;;19.00;1.00;;;;;;5032784;22;20061;-75
2021/04/01 09:02:02;;;;;;;11.07;7.32;;;19.40;99.90;;;;;;5027130;28;20516;-76
2021/04/01 09:04:30;;;;;;;13.25;7.40;;;19.10;99.90;;;;;;5026732;28;20030;-76
2021/04/01 09:07:02;;;;;;;9.43;6.22;;;19.30;99.90;;;;;;5019870;28;20029;-75
2021/04/01 09:09:32;;;;;;;11.80;6.80;;;19.80;99.90;;;;;;5033435;28;20029;-76
2021/04/01 09:12:12;;;;;;;19.52;8.40;;;20.00;99.90;;;;;;5017018;28;20024;-76
2021/04/01 09:14:44;;;;;;;13.40;6.55;;;20.10;99.90;;;;;;5019918;28;20111;-76
2021/04/01 09:17:11;;;;;;;12.25;7.45;;;20.10;99.90;;;;;;5034021;28;20044;-77
2021/04/01 09:19:42;;;;;;;16.23;6.32;;;20.30;99.90;;;;;;5032833;28;20028;-75
2021/04/01 09:22:41;;;;;;;11.43;6.63;;;20.30;99.90;;;;;;5020301;28;20363;-77
2021/04/01 09:25:07;;;;;;;10.63;6.35;;;20.20;99.90;;;;;;5027922;28;20179;-77
2021/04/01 09:27:52;;;;;;;6.72;5.30;;;20.10;99.90;;;;;;5026836;28;20076;-73
2021/04/01 09:30:22;;;;;;;13.40;6.80;;;19.90;99.90;;;;;;5021243;28;20107;-75
2021/04/01 09:32:51;;;;;;;12.48;5.50;;;19.80;99.90;;;;;;5026653;28;20025;-75
2021/04/01 09:35:18;;;;;;;15.95;6.05;;;19.80;99.90;;;;;;5034216;28;20025;-77
2021/04/01 09:37:59;;;;;;;9.75;5.40;;;19.90;99.90;;;;;;5021466;28;20511;-74
2021/04/01 09:40:31;;;;;;;13.93;6.00;;;19.90;99.90;;;;;;5024767;28;20028;-77
2021/04/01 09:43:18;;;;;;;12.55;6.38;;;20.00;99.90;;;;;;5026189;28;20056;-75
2021/04/01 09:45:52;;;;;;;14.10;6.15;;;20.10;99.90;;;;;;5032522;28;20033;-75
2021/04/01 09:48:25;;;;;;;12.40;6.25;;;20.20;99.90;;;;;;5034166;28;20022;-75
2021/04/01 09:50:55;;;;;;;10.40;5.60;;;20.10;99.90;;;;;;5033619;28;20078;-75
2021/04/01 09:53:23;;;;;;;15.73;6.47;;;20.20;99.90;;;;;;5032008;28;20075;-75
2021/04/01 09:55:55;;;;;;;10.23;5.82;;;20.20;99.90;;;;;;5023824;28;20029;-77
2021/04/01 09:58:23;;;;;;;18.33;6.97;;;20.40;99.90;;;;;;5026966;28;20460;-76
2021/04/01 10:03:22;;;;;;;10.43;6.03;;;20.60;99.90;;;;;;5033589;28;20099;-76
2021/04/01 10:05:48;;;;;;;10.68;5.95;;;21.00;99.90;;;;;;5033981;28;20026;-75
2021/04/01 10:08:27;;;;;;;13.80;5.47;;;21.30;99.90;;;;;;5033879;28;20085;-76
2021/04/01 10:11:01;;;;;;;9.27;5.22;;;21.50;99.90;;;;;;5032786;28;20017;-76
2021/04/01 10:13:29;;;;;;;11.48;4.30;;;21.60;99.90;;;;;;5034005;28;20102;-76
2021/04/01 10:15:57;;;;;;;10.55;5.82;;;21.50;99.90;;;;;;5026450;28;20434;-74
2021/04/01 10:18:37;;;;;;;8.63;4.18;;;21.70;99.90;;;;;;5031914;28;20025;-76
2021/04/01 10:21:04;;;;;;;10.15;4.25;;;21.80;99.90;;;;;;5022162;28;20156;-77
2021/04/01 10:23:48;;;;;;;6.55;3.85;;;21.90;99.90;;;;;;5034462;28;20018;-77
2021/04/01 10:26:16;;;;;;;10.05;4.55;;;22.10;99.90;;;;;;5035333;28;20036;-77
2021/04/01 10:29:17;;;;;;;9.45;3.70;;;22.10;99.90;;;;;;5034218;28;20378;-78
2021/04/01 10:31:45;;;;;;;5.97;3.45;;;22.10;98.30;;;;;;5024266;28;20037;-76
2021/04/01 10:34:26;;;;;;;7.93;3.85;;;22.10;91.40;;;;;;5030317;28;20032;-77
2021/04/01 10:36:53;;;;;;;11.48;3.78;;;22.50;85.50;;;;;;5033921;28;20143;-76
2021/04/01 10:39:19;;;;;;;8.43;4.57;;;22.40;77.60;;;;;;5030725;28;20067;-77
2021/04/01 10:41:47;;;;;;;11.20;4.30;;;22.60;75.10;;;;;;5032741;28;20033;-77
2021/04/01 10:44:15;;;;;;;9.07;3.50;;;22.70;74.20;;;;;;5049137;28;20026;-75
2021/04/01 10:47:01;;;;;;;9.00;3.78;;;22.80;66.80;;;;;;5035389;28;20026;-78
2021/04/01 10:49:32;;;;;;;7.75;3.35;;;23.20;58.00;;;;;;5021143;28;20022;-77
2021/04/01 10:52:03;;;;;;;3.45;3.15;;;23.00;54.20;;;;;;5046223;28;20021;-75
2021/04/01 10:54:38;;;;;;;4.30;3.08;;;23.40;52.10;;;;;;5052416;28;20190;-75
2021/04/01 10:57:08;;;;;;;9.68;3.50;;;23.70;46.10;;;;;;5046870;28;20123;-77
2021/04/01 10:59:47;;;;;;;6.25;3.50;;;23.80;40.40;;;;;;5031664;28;20026;-77
2021/04/01 11:02:32;;;;;;;9.35;3.10;;;23.60;38.20;;;;;;5016685;28;20203;-77
2021/04/01 11:05:03;;;;;;;12.98;2.90;;;23.70;32.90;;;;;;5028497;28;20397;-76
2021/04/01 11:07:42;;;;;;;7.63;2.95;;;23.80;29.60;;;;;;5027002;28;20033;-77
2021/04/01 11:10:10;;;;;;;7.75;2.55;;;23.70;28.60;;;;;;5032822;28;20037;-75
2021/04/01 11:12:36;;;;;;;8.30;2.90;;;23.90;27.10;;;;;;5030872;28;20191;-77
2021/04/01 11:15:07;;;;;;;5.53;2.33;;;23.90;26.00;;;;;;5032268;28;20025;-76
2021/04/01 11:17:40;;;;;;;2.80;2.22;;;23.70;24.20;;;;;;5031325;28;20049;-76
2021/04/01 11:20:07;;;;;;;4.88;2.28;;;23.50;23.10;;;;;;5021697;28;20036;-75
2021/04/01 11:22:33;;;;;;;2.58;1.90;;;23.20;22.20;;;;;;5042586;28;20021;-76
2021/04/01 11:25:13;;;;;;;7.07;2.40;;;23.20;23.10;;;;;;5044358;28;20035;-76
2021/04/01 11:28:00;;;;;;;3.78;2.08;;;23.30;22.10;;;;;;5047243;28;20036;-75
2021/04/01 11:30:39;;;;;;;5.63;2.42;;;23.40;22.20;;;;;;5040806;28;20120;-76
2021/04/01 11:33:05;;;;;;;2.47;2.20;;;23.20;20.30;;;;;;5031547;28;20037;-77
2021/04/01 11:35:31;;;;;;;3.10;2.65;;;23.10;19.00;;;;;;5016258;28;20123;-77
2021/04/01 11:37:57;;;;;;;4.60;2.17;;;23.10;19.10;;;;;;5026196;28;20393;-77
2021/04/01 11:40:23;;;;;;;4.13;2.35;;;23.10;19.80;;;;;;5013744;28;20022;-76
2021/04/01 11:42:58;;;;;;;6.25;2.28;;;23.30;19.20;;;;;;5015056;28;20069;-78
2021/04/01 11:45:35;;;;;;;3.63;1.85;;;23.50;19.40;;;;;;5024527;28;20025;-77
2021/04/01 11:48:03;;;;;;;3.85;2.33;;;23.90;18.50;;;;;;5018281;28;20038;-75
2021/04/01 11:50:29;;;;;;;5.72;3.13;;;24.20;17.30;;;;;;5025290;28;20033;-77
2021/04/01 11:53:00;;;;;;;3.92;2.30;;;24.20;17.50;;;;;;5031411;28;20070;-77
2021/04/01 11:55:27;;;;;;;4.32;2.00;;;24.30;16.50;;;;;;5035426;28;20037;-77
2021/04/01 11:57:53;;;;;;;6.05;2.08;;;24.20;15.30;;;;;;5019851;28;20037;-76
2021/04/01 12:02:58;;;;;;;5.32;2.10;;;23.80;13.80;;;;;;5018312;28;20045;-76
2021/04/01 12:05:26;;;;;;;4.10;2.20;;;24.10;14.60;;;;;;5026698;28;20140;-76
2021/04/01 12:07:53;;;;;;;4.45;2.17;;;24.30;12.90;;;;;;5027502;28;20108;-76
2021/04/01 12:10:18;;;;;;;2.33;1.98;;;24.30;11.10;;;;;;5027936;28;20037;-76
2021/04/01 12:12:44;;;;;;;3.67;2.10;;;24.10;10.80;;;;;;5022437;28;20209;-77
2021/04/01 12:15:11;;;;;;;5.45;2.40;;;24.50;10.30;;;;;;5035710;28;20489;-77
2021/04/01 12:17:41;;;;;;;3.83;2.15;;;24.50;9.30;;;;;;5015170;28;20080;-77
2021/04/01 12:20:12;;;;;;;8.00;2.23;;;24.30;8.90;;;;;;5024246;28;20022;-77
2021/04/01 12:22:41;;;;;;;8.25;2.08;;;24.30;7.70;;;;;;5023802;28;20022;-76
2021/04/01 12:25:11;;;;;;;5.75;2.13;;;24.40;7.60;;;;;;5032223;28;20112;-79
2021/04/01 12:27:37;;;;;;;2.95;2.17;;;24.50;7.10;;;;;;5039402;28;20029;-76
2021/04/01 12:30:05;;;;;;;5.35;2.05;;;24.40;5.20;;;;;;5037397;28;20084;-77
2021/04/01 12:32:33;;;;;;;6.22;2.25;;;24.40;5.00;;;;;;5048652;28;20030;-76
2021/04/01 12:35:06;;;;;;;11.70;2.40;;;24.50;4.70;;;;;;5034815;28;20150;-75
2021/04/01 12:37:33;;;;;;;2.95;1.92;;;24.20;2.90;;;;;;5032886;28;20085;-75
2021/04/01 12:40:15;;;;;;;2.22;1.98;;;24.00;2.50;;;;;;5047104;28;20033;-75
2021/04/01 12:42:43;;;;;;;3.03;1.70;;;24.40;2.90;;;;;;5031013;28;20105;-76
2021/04/01 12:45:19;;;;;;;8.73;3.22;;;24.50;1.40;;;;;;5033267;28;20033;-76
2021/04/01 12:47:45;;;;;;;6.93;2.05;;;24.40;1.00;;;;;;5042810;28;20028;-76
2021/04/01 12:50:12;;;;;;;1.90;1.70;;;24.30;1.00;;;;;;5028177;28;20090;-77
2021/04/01 12:52:52;;;;;;;2.35;1.80;;;24.40;1.00;;;;;;5017962;28;20029;-77
2021/04/01 12:55:36;;;;;;;2.35;1.80;;;24.40;1.00;;;;;;5025264;28;20044;-77
2021/04/01 12:58:04;;;;;;;2.53;1.90;;;24.50;1.00;;;;;;5030446;28;20025;-77
2021/04/01 13:00:40;;;;;;;3.38;1.70;;;24.50;1.00;;;;;;5029620;28;21639;-76
2021/04/01 13:03:06;;;;;;;5.10;1.70;;;24.40;1.00;;;;;;5026290;28;20030;-77
2021/04/01 13:05:33;;;;;;;6.55;2.88;;;24.50;1.00;;;;;;5032696;28;20037;-77
2021/04/01 13:10:42;;;;;;;3.53;1.88;;;24.70;1.00;;;;;;5027911;28;20053;-76
2021/04/01 13:13:09;;;;;;;7.72;1.95;;;24.50;1.00;;;;;;5021588;28;20393;-76
2021/04/01 13:15:36;;;;;;;6.65;2.03;;;24.40;1.00;;;;;;5022076;28;20045;-78
2021/04/01 13:18:02;;;;;;;8.35;2.33;;;24.30;1.00;;;;;;5023395;28;20472;-76
2021/04/01 13:20:28;;;;;;;6.22;2.13;;;24.40;1.00;;;;;;5031392;28;20104;-77
2021/04/01 13:25:32;;;;;;;3.17;2.17;;;25.00;1.00;;;;;;5018521;28;20033;-77
2021/04/01 13:28:04;;;;;;;6.45;2.30;;;24.40;1.00;;;;;;5027913;28;20043;-77
2021/04/01 13:30:31;;;;;;;3.45;2.10;;;24.30;1.00;;;;;;5013387;28;20065;-76
2021/04/01 13:35:34;;;;;;;5.97;2.33;;;24.20;1.00;;;;;;5031855;28;20432;-76
2021/04/01 13:38:43;;;;;;;4.50;2.55;;;24.10;1.00;;;;;;5029863;28;21531;-78
2021/04/01 13:40:50;;;;;;;11.75;1.90;;;24.10;1.00;;;;;;5014073;28;20048;-76
2021/04/01 13:43:21;;;;;;;4.28;2.63;;;24.10;1.00;;;;;;5024866;28;20072;-77
2021/04/01 13:45:47;;;;;;;8.85;2.88;;;24.00;1.00;;;;;;5010587;28;20033;-76
2021/04/01 13:48:15;;;;;;;12.10;2.38;;;24.10;1.00;;;;;;5021603;28;20493;-76
2021/04/01 13:50:49;;;;;;;2.78;2.08;;;23.90;1.00;;;;;;5017620;28;20072;-77
2021/04/01 13:56:03;;;;;;;7.60;2.67;;;23.70;1.00;;;;;;5032289;28;20438;-75
2021/04/01 14:09:48;;;;;;;4.82;2.80;;;23.40;1.00;;;;;;5032463;28;20056;-76
2021/04/01 14:12:19;;;;;;;8.30;3.47;;;23.40;1.00;;;;;;5031239;28;20116;-75
2021/04/01 14:14:45;;;;;;;;;;;23.30;1.00;;;;;;5026324;28;20029;-75
2021/04/01 14:17:14;;;;;;;3.60;2.78;;;23.30;1.00;;;;;;5027766;28;20054;-75
2021/04/01 14:19:40;;;;;;;5.63;3.45;;;23.10;1.00;;;;;;5032281;28;20444;-76
2021/04/01 14:22:07;;;;;;;5.70;3.67;;;23.20;1.00;;;;;;5014644;28;20104;-75
2021/04/01 14:29:35;;;;;;;;;;;23.60;1.00;;;;;;5025348;28;20082;-76
2021/04/01 14:32:02;;;;;;;5.25;3.35;;;23.60;1.00;;;;;;5032187;28;19916;-76
2021/04/01 14:34:28;;;;;;;8.18;3.85;;;23.60;1.00;;;;;;5019047;28;20413;-76
2021/04/01 14:37:00;;;;;;;6.47;4.03;;;23.70;1.00;;;;;;5022780;28;20087;-76
2021/04/01 14:39:29;;;;;;;5.00;3.35;;;23.90;1.00;;;;;;5027037;28;20057;-75
2021/04/01 14:42:03;;;;;;;6.38;3.47;;;23.50;1.00;;;;;;5019729;28;20025;-75
2021/04/01 14:44:32;;;;;;;5.25;3.53;;;23.40;1.00;;;;;;5028803;28;20401;-76
2021/04/01 14:46:59;;;;;;;6.30;4.03;;;23.20;1.00;;;;;;5023574;28;20049;-76
2021/04/01 14:49:25;;;;;;;7.70;4.10;;;23.00;1.00;;;;;;5022600;28;20025;-77
2021/04/01 14:51:51;;;;;;;4.93;3.65;;;23.10;1.00;;;;;;5028576;28;20495;-76
2021/04/01 14:54:19;;;;;;;9.43;3.90;;;23.10;1.00;;;;;;5021439;28;20082;-76
2021/04/01 14:56:49;;;;;;;5.22;2.92;;;23.10;1.00;;;;;;5025134;28;20025;-75
2021/04/01 14:59:20;;;;;;;6.82;4.00;;;23.00;1.00;;;;;;5047843;22;20042;-79
2021/04/01 15:01:46;;;;;;;;;;;23.10;1.00;;;;;;5026596;28;20506;-78